sensor_id;sensor_type;location;lat;lon;timestamp;pressure;altitude;pressure_sealevel;temperature;humidity
54453;BME280;40363;52.270;10.546;2022-12-26T00:01:21;76156.34;;;-147.06;100.00
54453;BME280;40363;52.270;10.546;2022-12-26T00:03:48;76166.63;;;-147.06;100.00
54453;BME280;40363;52.270;10.546;2022-12-26T00:06:16;76166.63;;;-147.06;100.00
54453;BME280;40363;52.270;10.546;2022-12-26T00:08:42;76158.38;;;-147.06;100.00
54453;BME280;40363;52.270;10.546;2022-12-26T00:11:09;76168.66;;;-147.06;100.00
54453;BME280;40363;52.270;10.546;2022-12-26T00:13:36;76172.78;;;-147.06;100.00
54453;BME280;40363;52.270;10.546;2022-12-26T00:16:04;76170.72;;;-147.06;100.00
54453;BME280;40363;52.270;10.546;2022-12-26T00:18:32;76160.44;;;-147.06;100.00
54453;BME280;40363;52.270;10.546;2022-12-26T00:20:59;76176.88;;;-147.06;100.00
54453;BME280;40363;52.270;10.546;2022-12-26T00:23:25;76168.66;;;-147.06;100.00
54453;BME280;40363;52.270;10.546;2022-12-26T00:25:52;76174.84;;;-147.06;100.00
54453;BME280;40363;52.270;10.546;2022-12-26T00:28:18;76183.06;;;-147.06;100.00
54453;BME280;40363;52.270;10.546;2022-12-26T00:30:45;76178.94;;;-147.06;100.00
54453;BME280;40363;52.270;10.546;2022-12-26T00:33:11;76176.88;;;-147.06;100.00
54453;BME280;40363;52.270;10.546;2022-12-26T00:35:39;76176.88;;;-147.06;100.00
54453;BME280;40363;52.270;10.546;2022-12-26T00:38:05;76183.06;;;-147.06;100.00
54453;BME280;40363;52.270;10.546;2022-12-26T00:40:31;76183.06;;;-147.06;100.00
54453;BME280;40363;52.270;10.546;2022-12-26T00:42:58;76189.22;;;-147.06;100.00
54453;BME280;40363;52.270;10.546;2022-12-26T00:45:24;76205.66;;;-147.06;100.00
54453;BME280;40363;52.270;10.546;2022-12-26T00:47:50;76197.44;;;-147.06;100.00
54453;BME280;40363;52.270;10.546;2022-12-26T00:50:17;76199.50;;;-147.06;100.00
54453;BME280;40363;52.270;10.546;2022-12-26T00:52:45;76199.50;;;-147.06;100.00
54453;BME280;40363;52.270;10.546;2022-12-26T00:55:11;76211.81;;;-147.06;100.00
54453;BME280;40363;52.270;10.546;2022-12-26T00:57:37;76203.59;;;-147.06;100.00
54453;BME280;40363;52.270;10.546;2022-12-26T01:00:04;76205.66;;;-147.06;100.00
54453;BME280;40363;52.270;10.546;2022-12-26T01:02:31;76213.88;;;-147.06;100.00
54453;BME280;40363;52.270;10.546;2022-12-26T01:05:03;76213.88;;;-147.06;100.00
54453;BME280;40363;52.270;10.546;2022-12-26T01:07:31;76220.03;;;-147.06;100.00
54453;BME280;40363;52.270;10.546;2022-12-26T01:09:59;76218.00;;;-147.06;100.00
54453;BME280;40363;52.270;10.546;2022-12-26T01:12:25;76222.09;;;-147.06;100.00
54453;BME280;40363;52.270;10.546;2022-12-26T01:14:53;76220.03;;;-147.06;100.00
54453;BME280;40363;52.270;10.546;2022-12-26T01:17:20;76220.03;;;-147.06;100.00
54453;BME280;40363;52.270;10.546;2022-12-26T01:19:46;76222.09;;;-147.06;100.00
54453;BME280;40363;52.270;10.546;2022-12-26T01:22:13;76230.31;;;-147.06;100.00
54453;BME280;40363;52.270;10.546;2022-12-26T01:24:39;76234.44;;;-147.06;100.00
54453;BME280;40363;52.270;10.546;2022-12-26T01:27:07;76230.31;;;-147.06;100.00
54453;BME280;40363;52.270;10.546;2022-12-26T01:29:33;76226.22;;;-147.06;100.00
54453;BME280;40363;52.270;10.546;2022-12-26T01:32:00;76224.16;;;-147.06;100.00
54453;BME280;40363;52.270;10.546;2022-12-26T01:34:26;76224.16;;;-147.06;100.00
54453;BME280;40363;52.270;10.546;2022-12-26T01:36:52;76222.09;;;-147.06;100.00
54453;BME280;40363;52.270;10.546;2022-12-26T01:39:19;76228.28;;;-147.06;100.00
54453;BME280;40363;52.270;10.546;2022-12-26T01:41:45;76222.09;;;-147.06;100.00
54453;BME280;40363;52.270;10.546;2022-12-26T01:46:54;76230.31;;;-147.06;100.00
54453;BME280;40363;52.270;10.546;2022-12-26T01:49:25;76230.31;;;-147.06;100.00
54453;BME280;40363;52.270;10.546;2022-12-26T01:51:55;76230.31;;;-147.06;100.00
54453;BME280;40363;52.270;10.546;2022-12-26T01:54:23;76230.31;;;-147.06;100.00
54453;BME280;40363;52.270;10.546;2022-12-26T01:56:50;76234.44;;;-147.06;100.00
54453;BME280;40363;52.270;10.546;2022-12-26T01:59:18;76232.38;;;-147.06;100.00
54453;BME280;40363;52.270;10.546;2022-12-26T02:01:46;76230.31;;;-147.06;100.00
54453;BME280;40363;52.270;10.546;2022-12-26T02:04:16;76236.50;;;-147.06;100.00
54453;BME280;40363;52.270;10.546;2022-12-26T02:07:03;76244.72;;;-147.06;100.00
54453;BME280;40363;52.270;10.546;2022-12-26T02:09:30;76236.50;;;-147.06;100.00
54453;BME280;40363;52.270;10.546;2022-12-26T02:11:57;76242.66;;;-147.06;100.00
54453;BME280;40363;52.270;10.546;2022-12-26T02:14:26;76242.66;;;-147.06;100.00
54453;BME280;40363;52.270;10.546;2022-12-26T02:16:52;76242.66;;;-147.06;100.00
54453;BME280;40363;52.270;10.546;2022-12-26T02:19:23;76248.81;;;-147.06;100.00
54453;BME280;40363;52.270;10.546;2022-12-26T02:22:01;76234.44;;;-147.06;100.00
54453;BME280;40363;52.270;10.546;2022-12-26T02:24:44;76250.88;;;-147.06;100.00
54453;BME280;40363;52.270;10.546;2022-12-26T02:30:26;76244.72;;;-147.06;100.00
54453;BME280;40363;52.270;10.546;2022-12-26T02:33:07;76240.59;;;-147.06;100.00
54453;BME280;40363;52.270;10.546;2022-12-26T02:35:42;76242.66;;;-147.06;100.00
54453;BME280;40363;52.270;10.546;2022-12-26T02:38:16;76238.53;;;-147.06;100.00
54453;BME280;40363;52.270;10.546;2022-12-26T02:40:49;76250.88;;;-147.06;100.00
54453;BME280;40363;52.270;10.546;2022-12-26T02:43:20;76250.88;;;-147.06;100.00
54453;BME280;40363;52.270;10.546;2022-12-26T02:45:52;76248.81;;;-147.06;100.00
54453;BME280;40363;52.270;10.546;2022-12-26T02:48:39;76250.88;;;-147.06;100.00
54453;BME280;40363;52.270;10.546;2022-12-26T02:51:10;76242.66;;;-147.06;100.00
54453;BME280;40363;52.270;10.546;2022-12-26T02:53:59;76246.75;;;-147.06;100.00
54453;BME280;40363;52.270;10.546;2022-12-26T02:56:45;76240.59;;;-147.06;100.00
54453;BME280;40363;52.270;10.546;2022-12-26T02:59:34;76232.38;;;-147.06;100.00
54453;BME280;40363;52.270;10.546;2022-12-26T03:02:27;76238.53;;;-147.06;100.00
54453;BME280;40363;52.270;10.546;2022-12-26T03:05:13;76246.75;;;-147.06;100.00
54453;BME280;40363;52.270;10.546;2022-12-26T03:07:59;76250.88;;;-147.06;100.00
54453;BME280;40363;52.270;10.546;2022-12-26T03:10:45;76248.81;;;-147.06;100.00
54453;BME280;40363;52.270;10.546;2022-12-26T03:13:30;76246.75;;;-147.06;100.00
54453;BME280;40363;52.270;10.546;2022-12-26T03:16:01;76248.81;;;-147.06;100.00
54453;BME280;40363;52.270;10.546;2022-12-26T03:18:48;76259.09;;;-147.06;100.00
54453;BME280;40363;52.270;10.546;2022-12-26T03:21:16;76257.03;;;-147.06;100.00
54453;BME280;40363;52.270;10.546;2022-12-26T03:23:45;76269.38;;;-147.06;100.00
54453;BME280;40363;52.270;10.546;2022-12-26T03:26:13;76267.31;;;-147.06;100.00
54453;BME280;40363;52.270;10.546;2022-12-26T03:28:58;76263.22;;;-147.06;100.00
54453;BME280;40363;52.270;10.546;2022-12-26T03:31:38;76250.88;;;-147.06;100.00
54453;BME280;40363;52.270;10.546;2022-12-26T03:34:06;76259.09;;;-147.06;100.00
54453;BME280;40363;52.270;10.546;2022-12-26T03:39:32;76259.09;;;-147.06;100.00
54453;BME280;40363;52.270;10.546;2022-12-26T03:42:15;76257.03;;;-147.06;100.00
54453;BME280;40363;52.270;10.546;2022-12-26T03:45:02;76257.03;;;-147.06;100.00
54453;BME280;40363;52.270;10.546;2022-12-26T03:47:50;76259.09;;;-147.06;100.00
54453;BME280;40363;52.270;10.546;2022-12-26T03:50:38;76271.44;;;-147.06;100.00
54453;BME280;40363;52.270;10.546;2022-12-26T03:53:24;76267.31;;;-147.06;100.00
54453;BME280;40363;52.270;10.546;2022-12-26T03:56:11;76267.31;;;-147.06;100.00
54453;BME280;40363;52.270;10.546;2022-12-26T03:58:58;76261.16;;;-147.06;100.00
54453;BME280;40363;52.270;10.546;2022-12-26T04:01:45;76261.16;;;-147.06;100.00
54453;BME280;40363;52.270;10.546;2022-12-26T04:04:31;76263.22;;;-147.06;100.00
54453;BME280;40363;52.270;10.546;2022-12-26T04:07:18;76263.22;;;-147.06;100.00
54453;BME280;40363;52.270;10.546;2022-12-26T04:10:05;76275.53;;;-147.06;100.00
54453;BME280;40363;52.270;10.546;2022-12-26T04:12:50;76291.97;;;-147.06;100.00
54453;BME280;40363;52.270;10.546;2022-12-26T04:15:37;76298.16;;;-147.06;100.00
54453;BME280;40363;52.270;10.546;2022-12-26T04:18:24;76302.25;;;-147.06;100.00
54453;BME280;40363;52.270;10.546;2022-12-26T04:21:12;76308.44;;;-147.06;100.00
54453;BME280;40363;52.270;10.546;2022-12-26T04:23:55;76310.47;;;-147.06;100.00
54453;BME280;40363;52.270;10.546;2022-12-26T04:26:43;76320.75;;;-147.06;100.00
54453;BME280;40363;52.270;10.546;2022-12-26T04:29:28;76324.88;;;-147.06;100.00
54453;BME280;40363;52.270;10.546;2022-12-26T04:32:13;76322.81;;;-147.06;100.00
54453;BME280;40363;52.270;10.546;2022-12-26T04:35:02;76328.97;;;-147.06;100.00
54453;BME280;40363;52.270;10.546;2022-12-26T04:37:47;76328.97;;;-147.06;100.00
54453;BME280;40363;52.270;10.546;2022-12-26T04:40:33;76335.13;;;-147.06;100.00
54453;BME280;40363;52.270;10.546;2022-12-26T04:43:19;76337.19;;;-147.06;100.00
54453;BME280;40363;52.270;10.546;2022-12-26T04:46:03;76337.19;;;-147.06;100.00
54453;BME280;40363;52.270;10.546;2022-12-26T04:48:30;76339.25;;;-147.06;100.00
54453;BME280;40363;52.270;10.546;2022-12-26T04:51:15;76337.19;;;-147.06;100.00
54453;BME280;40363;52.270;10.546;2022-12-26T04:53:41;76335.13;;;-147.06;100.00
54453;BME280;40363;52.270;10.546;2022-12-26T04:56:09;76349.53;;;-147.06;100.00
54453;BME280;40363;52.270;10.546;2022-12-26T04:58:37;76347.47;;;-147.06;100.00
54453;BME280;40363;52.270;10.546;2022-12-26T05:01:03;76365.97;;;-147.06;100.00
54453;BME280;40363;52.270;10.546;2022-12-26T05:03:43;76361.84;;;-147.06;100.00
54453;BME280;40363;52.270;10.546;2022-12-26T05:06:27;76365.97;;;-147.06;100.00
54453;BME280;40363;52.270;10.546;2022-12-26T05:09:11;76372.13;;;-147.06;100.00
54453;BME280;40363;52.270;10.546;2022-12-26T05:11:58;76376.25;;;-147.06;100.00
54453;BME280;40363;52.270;10.546;2022-12-26T05:14:25;76368.03;;;-147.06;100.00
54453;BME280;40363;52.270;10.546;2022-12-26T05:16:52;76374.19;;;-147.06;100.00
54453;BME280;40363;52.270;10.546;2022-12-26T05:19:36;76370.09;;;-147.06;100.00
54453;BME280;40363;52.270;10.546;2022-12-26T05:22:20;76370.09;;;-147.06;100.00
54453;BME280;40363;52.270;10.546;2022-12-26T05:25:07;76372.13;;;-147.06;100.00
54453;BME280;40363;52.270;10.546;2022-12-26T05:27:54;76365.97;;;-147.06;100.00
54453;BME280;40363;52.270;10.546;2022-12-26T05:30:38;76370.09;;;-147.06;100.00
54453;BME280;40363;52.270;10.546;2022-12-26T05:33:05;76363.91;;;-147.06;100.00
54453;BME280;40363;52.270;10.546;2022-12-26T05:35:48;76359.81;;;-147.06;100.00
54453;BME280;40363;52.270;10.546;2022-12-26T05:38:15;76370.09;;;-147.06;100.00
54453;BME280;40363;52.270;10.546;2022-12-26T05:40:41;76370.09;;;-147.06;100.00
54453;BME280;40363;52.270;10.546;2022-12-26T05:43:09;76374.19;;;-147.06;100.00
54453;BME280;40363;52.270;10.546;2022-12-26T05:45:35;76370.09;;;-147.06;100.00
54453;BME280;40363;52.270;10.546;2022-12-26T05:48:02;76363.91;;;-147.06;100.00
54453;BME280;40363;52.270;10.546;2022-12-26T05:50:28;76361.84;;;-147.06;100.00
54453;BME280;40363;52.270;10.546;2022-12-26T05:52:55;76357.75;;;-147.06;100.00
54453;BME280;40363;52.270;10.546;2022-12-26T05:55:21;76361.84;;;-147.06;100.00
54453;BME280;40363;52.270;10.546;2022-12-26T05:57:48;76363.91;;;-147.06;100.00
54453;BME280;40363;52.270;10.546;2022-12-26T06:00:16;76370.09;;;-147.06;100.00
54453;BME280;40363;52.270;10.546;2022-12-26T06:02:42;76363.91;;;-147.06;100.00
54453;BME280;40363;52.270;10.546;2022-12-26T06:05:09;76370.09;;;-147.06;100.00
54453;BME280;40363;52.270;10.546;2022-12-26T06:07:35;76374.19;;;-147.06;100.00
54453;BME280;40363;52.270;10.546;2022-12-26T06:10:02;76378.31;;;-147.06;100.00
54453;BME280;40363;52.270;10.546;2022-12-26T06:12:28;76378.31;;;-147.06;100.00
54453;BME280;40363;52.270;10.546;2022-12-26T06:14:55;76382.41;;;-147.06;100.00
54453;BME280;40363;52.270;10.546;2022-12-26T06:17:22;76394.75;;;-147.06;100.00
54453;BME280;40363;52.270;10.546;2022-12-26T06:19:49;76388.59;;;-147.06;100.00
54453;BME280;40363;52.270;10.546;2022-12-26T06:22:15;76388.59;;;-147.06;100.00
54453;BME280;40363;52.270;10.546;2022-12-26T06:24:42;76396.81;;;-147.06;100.00
54453;BME280;40363;52.270;10.546;2022-12-26T06:27:08;76386.53;;;-147.06;100.00
54453;BME280;40363;52.270;10.546;2022-12-26T06:29:34;76386.53;;;-147.06;100.00
54453;BME280;40363;52.270;10.546;2022-12-26T06:32:01;76388.59;;;-147.06;100.00
54453;BME280;40363;52.270;10.546;2022-12-26T06:34:29;76390.63;;;-147.06;100.00
54453;BME280;40363;52.270;10.546;2022-12-26T06:36:55;76394.75;;;-147.06;100.00
54453;BME280;40363;52.270;10.546;2022-12-26T06:39:22;76398.84;;;-147.06;100.00
54453;BME280;40363;52.270;10.546;2022-12-26T06:41:49;76398.84;;;-147.06;100.00
54453;BME280;40363;52.270;10.546;2022-12-26T06:44:15;76396.81;;;-147.06;100.00
54453;BME280;40363;52.270;10.546;2022-12-26T06:46:42;76392.69;;;-147.06;100.00
54453;BME280;40363;52.270;10.546;2022-12-26T06:49:08;76394.75;;;-147.06;100.00
54453;BME280;40363;52.270;10.546;2022-12-26T06:51:36;76394.75;;;-147.06;100.00
54453;BME280;40363;52.270;10.546;2022-12-26T06:54:02;76400.91;;;-147.06;100.00
54453;BME280;40363;52.270;10.546;2022-12-26T06:56:29;76396.81;;;-147.06;100.00
54453;BME280;40363;52.270;10.546;2022-12-26T06:58:56;76400.91;;;-147.06;100.00
54453;BME280;40363;52.270;10.546;2022-12-26T07:01:23;76405.03;;;-147.06;100.00
54453;BME280;40363;52.270;10.546;2022-12-26T07:03:50;76423.53;;;-147.06;100.00
54453;BME280;40363;52.270;10.546;2022-12-26T07:06:19;76423.53;;;-147.06;100.00
54453;BME280;40363;52.270;10.546;2022-12-26T07:08:48;76413.25;;;-147.06;100.00
54453;BME280;40363;52.270;10.546;2022-12-26T07:11:14;76417.34;;;-147.06;100.00
54453;BME280;40363;52.270;10.546;2022-12-26T07:13:41;76423.53;;;-147.06;100.00
54453;BME280;40363;52.270;10.546;2022-12-26T07:16:08;76421.47;;;-147.06;100.00
54453;BME280;40363;52.270;10.546;2022-12-26T07:18:34;76417.34;;;-147.06;100.00
54453;BME280;40363;52.270;10.546;2022-12-26T07:21:03;76419.41;;;-147.06;100.00
54453;BME280;40363;52.270;10.546;2022-12-26T07:23:29;76425.56;;;-147.06;100.00
54453;BME280;40363;52.270;10.546;2022-12-26T07:25:57;76423.53;;;-147.06;100.00
54453;BME280;40363;52.270;10.546;2022-12-26T07:28:24;76423.53;;;-147.06;100.00
54453;BME280;40363;52.270;10.546;2022-12-26T07:30:50;76435.84;;;-147.06;100.00
54453;BME280;40363;52.270;10.546;2022-12-26T07:33:17;76431.75;;;-147.06;100.00
54453;BME280;40363;52.270;10.546;2022-12-26T07:35:43;76433.78;;;-147.06;100.00
54453;BME280;40363;52.270;10.546;2022-12-26T07:41:04;76437.91;;;-147.06;100.00
54453;BME280;40363;52.270;10.546;2022-12-26T07:43:45;76446.13;;;-147.06;100.00
54453;BME280;40363;52.270;10.546;2022-12-26T07:46:11;76444.06;;;-147.06;100.00
54453;BME280;40363;52.270;10.546;2022-12-26T07:48:37;76452.28;;;-147.06;100.00
54453;BME280;40363;52.270;10.546;2022-12-26T07:51:04;76452.28;;;-147.06;100.00
54453;BME280;40363;52.270;10.546;2022-12-26T07:53:30;76439.97;;;-147.06;100.00
54453;BME280;40363;52.270;10.546;2022-12-26T07:55:57;76464.63;;;-147.06;100.00
54453;BME280;40363;52.270;10.546;2022-12-26T07:58:26;76456.41;;;-147.06;100.00
54453;BME280;40363;52.270;10.546;2022-12-26T08:00:52;76464.63;;;-147.06;100.00
54453;BME280;40363;52.270;10.546;2022-12-26T08:03:19;76456.41;;;-147.06;100.00
54453;BME280;40363;52.270;10.546;2022-12-26T08:05:46;76452.28;;;-147.06;100.00
54453;BME280;40363;52.270;10.546;2022-12-26T08:08:13;76462.56;;;-147.06;100.00
54453;BME280;40363;52.270;10.546;2022-12-26T08:10:39;76452.28;;;-147.06;100.00
54453;BME280;40363;52.270;10.546;2022-12-26T08:13:06;76472.84;;;-147.06;100.00
54453;BME280;40363;52.270;10.546;2022-12-26T08:15:34;76481.06;;;-147.06;100.00
54453;BME280;40363;52.270;10.546;2022-12-26T08:18:02;76483.13;;;-147.06;100.00
54453;BME280;40363;52.270;10.546;2022-12-26T08:20:29;76479.00;;;-147.06;99.87
54453;BME280;40363;52.270;10.546;2022-12-26T08:22:55;76472.84;;;-147.06;99.60
54453;BME280;40363;52.270;10.546;2022-12-26T08:25:22;76452.28;;;-147.06;99.20
54453;BME280;40363;52.270;10.546;2022-12-26T08:27:48;76460.53;;;-147.06;98.97
54453;BME280;40363;52.270;10.546;2022-12-26T08:30:15;76452.28;;;-147.06;98.83
54453;BME280;40363;52.270;10.546;2022-12-26T08:32:43;76472.84;;;-147.06;98.87
54453;BME280;40363;52.270;10.546;2022-12-26T08:35:09;76479.00;;;-147.06;98.83
54453;BME280;40363;52.270;10.546;2022-12-26T08:37:35;76476.97;;;-147.06;99.05
54453;BME280;40363;52.270;10.546;2022-12-26T08:40:02;76476.97;;;-147.06;99.13
54453;BME280;40363;52.270;10.546;2022-12-26T08:42:28;76481.06;;;-147.06;99.05
54453;BME280;40363;52.270;10.546;2022-12-26T08:44:55;76474.91;;;-147.06;99.06
54453;BME280;40363;52.270;10.546;2022-12-26T08:47:21;76470.78;;;-147.06;99.20
54453;BME280;40363;52.270;10.546;2022-12-26T08:49:51;76481.06;;;-147.06;99.33
54453;BME280;40363;52.270;10.546;2022-12-26T08:52:18;76476.97;;;-147.06;99.34
54453;BME280;40363;52.270;10.546;2022-12-26T08:54:44;76489.28;;;-147.06;99.15
54453;BME280;40363;52.270;10.546;2022-12-26T08:57:11;76483.13;;;-147.06;99.27
54453;BME280;40363;52.270;10.546;2022-12-26T08:59:37;76485.19;;;-147.06;99.10
54453;BME280;40363;52.270;10.546;2022-12-26T09:02:04;76485.19;;;-147.06;99.09
54453;BME280;40363;52.270;10.546;2022-12-26T09:04:30;76476.97;;;-147.06;98.90
54453;BME280;40363;52.270;10.546;2022-12-26T09:06:58;76485.19;;;-147.06;98.65
54453;BME280;40363;52.270;10.546;2022-12-26T09:09:24;76483.13;;;-147.06;98.41
54453;BME280;40363;52.270;10.546;2022-12-26T09:11:51;76476.97;;;-147.06;98.06
54453;BME280;40363;52.270;10.546;2022-12-26T09:14:17;76491.34;;;-147.06;97.94
54453;BME280;40363;52.270;10.546;2022-12-26T09:16:44;76487.25;;;-147.06;97.45
54453;BME280;40363;52.270;10.546;2022-12-26T09:19:14;76489.28;;;-147.06;97.00
54453;BME280;40363;52.270;10.546;2022-12-26T09:21:41;76499.56;;;-147.06;96.49
54453;BME280;40363;52.270;10.546;2022-12-26T09:24:11;76493.41;;;-147.06;95.79
54453;BME280;40363;52.270;10.546;2022-12-26T09:26:38;76501.63;;;-147.06;95.77
54453;BME280;40363;52.270;10.546;2022-12-26T09:29:04;76501.63;;;-147.06;95.31
54453;BME280;40363;52.270;10.546;2022-12-26T09:31:32;76495.47;;;-147.06;94.91
54453;BME280;40363;52.270;10.546;2022-12-26T09:34:00;76489.28;;;-147.06;94.90
54453;BME280;40363;52.270;10.546;2022-12-26T09:36:27;76491.34;;;-147.06;94.69
54453;BME280;40363;52.270;10.546;2022-12-26T09:38:54;76489.28;;;-147.06;94.09
54453;BME280;40363;52.270;10.546;2022-12-26T09:41:28;76483.13;;;-147.06;93.84
54453;BME280;40363;52.270;10.546;2022-12-26T09:43:59;76464.63;;;-147.06;94.24
54453;BME280;40363;52.270;10.546;2022-12-26T09:46:30;76466.69;;;-147.06;93.68
54453;BME280;40363;52.270;10.546;2022-12-26T09:48:58;76464.63;;;-147.06;93.79
54453;BME280;40363;52.270;10.546;2022-12-26T09:51:26;76468.75;;;-147.06;93.36
54453;BME280;40363;52.270;10.546;2022-12-26T09:53:54;76472.84;;;-147.06;93.65
54453;BME280;40363;52.270;10.546;2022-12-26T09:56:21;76468.75;;;-147.06;93.21
54453;BME280;40363;52.270;10.546;2022-12-26T09:58:51;76460.53;;;-147.06;93.70
54453;BME280;40363;52.270;10.546;2022-12-26T10:01:19;76444.06;;;-147.06;93.55
54453;BME280;40363;52.270;10.546;2022-12-26T10:03:46;76433.78;;;-147.06;93.14
54453;BME280;40363;52.270;10.546;2022-12-26T10:06:14;76431.75;;;-147.06;92.72
54453;BME280;40363;52.270;10.546;2022-12-26T10:08:47;76421.47;;;-147.06;92.65
54453;BME280;40363;52.270;10.546;2022-12-26T10:11:21;76427.63;;;-147.06;92.31
54453;BME280;40363;52.270;10.546;2022-12-26T10:13:52;76435.84;;;-147.06;92.21
54453;BME280;40363;52.270;10.546;2022-12-26T10:16:22;76427.63;;;-147.06;92.43
54453;BME280;40363;52.270;10.546;2022-12-26T10:18:53;76409.13;;;-147.06;91.70
54453;BME280;40363;52.270;10.546;2022-12-26T10:21:31;76423.53;;;-147.06;92.28
54453;BME280;40363;52.270;10.546;2022-12-26T10:24:01;76435.84;;;-147.06;92.33
54453;BME280;40363;52.270;10.546;2022-12-26T10:26:30;76429.69;;;-147.06;92.30
54453;BME280;40363;52.270;10.546;2022-12-26T10:29:00;76423.53;;;-147.06;92.37
54453;BME280;40363;52.270;10.546;2022-12-26T10:31:30;76429.69;;;-147.06;92.93
54453;BME280;40363;52.270;10.546;2022-12-26T10:33:59;76421.47;;;-147.06;92.67
54453;BME280;40363;52.270;10.546;2022-12-26T10:36:30;76411.19;;;-147.06;92.64
54453;BME280;40363;52.270;10.546;2022-12-26T10:38:58;76402.97;;;-147.06;92.56
54453;BME280;40363;52.270;10.546;2022-12-26T10:41:26;76405.03;;;-147.06;92.57
54453;BME280;40363;52.270;10.546;2022-12-26T10:43:53;76402.97;;;-147.06;92.73
54453;BME280;40363;52.270;10.546;2022-12-26T10:49:06;76386.53;;;-147.06;91.91
54453;BME280;40363;52.270;10.546;2022-12-26T10:51:33;76390.63;;;-147.06;91.86
54453;BME280;40363;52.270;10.546;2022-12-26T10:54:02;76390.63;;;-147.06;91.73
54453;BME280;40363;52.270;10.546;2022-12-26T10:56:29;76386.53;;;-147.06;91.59
54453;BME280;40363;52.270;10.546;2022-12-26T10:58:58;76386.53;;;-147.06;91.44
54453;BME280;40363;52.270;10.546;2022-12-26T11:01:29;76384.47;;;-147.06;91.42
54453;BME280;40363;52.270;10.546;2022-12-26T11:03:57;76386.53;;;-147.06;91.52
54453;BME280;40363;52.270;10.546;2022-12-26T11:06:26;76388.59;;;-147.06;90.89
54453;BME280;40363;52.270;10.546;2022-12-26T11:08:54;76382.41;;;-147.06;91.13
54453;BME280;40363;52.270;10.546;2022-12-26T11:11:21;76378.31;;;-147.06;91.00
54453;BME280;40363;52.270;10.546;2022-12-26T11:13:50;76386.53;;;-147.06;91.10
54453;BME280;40363;52.270;10.546;2022-12-26T11:16:22;76382.41;;;-147.06;90.68
54453;BME280;40363;52.270;10.546;2022-12-26T11:18:50;76372.13;;;-147.06;90.60
54453;BME280;40363;52.270;10.546;2022-12-26T11:21:19;76372.13;;;-147.06;90.32
54453;BME280;40363;52.270;10.546;2022-12-26T11:23:48;76349.53;;;-147.06;90.01
54453;BME280;40363;52.270;10.546;2022-12-26T11:26:18;76349.53;;;-147.06;89.38
54453;BME280;40363;52.270;10.546;2022-12-26T11:28:45;76341.31;;;-147.06;89.25
54453;BME280;40363;52.270;10.546;2022-12-26T11:31:17;76331.03;;;-147.06;89.00
54453;BME280;40363;52.270;10.546;2022-12-26T11:33:45;76328.97;;;-147.06;88.29
54453;BME280;40363;52.270;10.546;2022-12-26T11:36:16;76331.03;;;-147.06;87.68
54453;BME280;40363;52.270;10.546;2022-12-26T11:38:45;76324.88;;;-147.06;87.21
54453;BME280;40363;52.270;10.546;2022-12-26T11:41:15;76320.75;;;-147.06;86.91
54453;BME280;40363;52.270;10.546;2022-12-26T11:44:00;76310.47;;;-147.06;86.02
54453;BME280;40363;52.270;10.546;2022-12-26T11:46:31;76322.81;;;-147.06;86.45
54453;BME280;40363;52.270;10.546;2022-12-26T11:48:58;76306.38;;;-147.06;86.44
54453;BME280;40363;52.270;10.546;2022-12-26T11:51:32;76312.53;;;-147.06;85.94
54453;BME280;40363;52.270;10.546;2022-12-26T11:54:10;76298.16;;;-147.06;85.51
54453;BME280;40363;52.270;10.546;2022-12-26T11:56:38;76287.88;;;-147.06;85.14
54453;BME280;40363;52.270;10.546;2022-12-26T11:59:05;76287.88;;;-147.06;84.49
54453;BME280;40363;52.270;10.546;2022-12-26T12:01:40;76294.03;;;-147.06;85.26
54453;BME280;40363;52.270;10.546;2022-12-26T12:04:07;76296.09;;;-147.06;85.14
54453;BME280;40363;52.270;10.546;2022-12-26T12:06:40;76300.19;;;-147.06;84.71
54453;BME280;40363;52.270;10.546;2022-12-26T12:09:12;76306.38;;;-147.06;84.09
54453;BME280;40363;52.270;10.546;2022-12-26T12:11:47;76302.25;;;-147.06;83.41
54453;BME280;40363;52.270;10.546;2022-12-26T12:14:26;76306.38;;;-147.06;84.00
54453;BME280;40363;52.270;10.546;2022-12-26T12:16:59;76310.47;;;-147.06;84.24
54453;BME280;40363;52.270;10.546;2022-12-26T12:19:31;76316.66;;;-147.06;84.64
54453;BME280;40363;52.270;10.546;2022-12-26T12:22:07;76314.59;;;-147.06;84.44
54453;BME280;40363;52.270;10.546;2022-12-26T12:24:39;76320.75;;;-147.06;84.52
54453;BME280;40363;52.270;10.546;2022-12-26T12:27:10;76312.53;;;-147.06;84.00
54453;BME280;40363;52.270;10.546;2022-12-26T12:32:24;76304.31;;;-147.06;83.48
54453;BME280;40363;52.270;10.546;2022-12-26T12:35:05;76300.19;;;-147.06;81.38
54453;BME280;40363;52.270;10.546;2022-12-26T12:37:40;76289.94;;;-147.06;80.15
54453;BME280;40363;52.270;10.546;2022-12-26T12:40:15;76265.25;;;-147.06;78.39
54453;BME280;40363;52.270;10.546;2022-12-26T12:42:48;76255.00;;;-147.06;77.54
54453;BME280;40363;52.270;10.546;2022-12-26T12:45:21;76255.00;;;-147.06;77.56
54453;BME280;40363;52.270;10.546;2022-12-26T12:47:53;76250.88;;;-147.06;76.85
54453;BME280;40363;52.270;10.546;2022-12-26T12:50:25;76240.59;;;-147.06;76.19
54453;BME280;40363;52.270;10.546;2022-12-26T12:52:54;76232.38;;;-147.06;75.50
54453;BME280;40363;52.270;10.546;2022-12-26T12:55:30;76226.22;;;-147.06;76.16
54453;BME280;40363;52.270;10.546;2022-12-26T12:58:04;76226.22;;;-147.06;75.73
54453;BME280;40363;52.270;10.546;2022-12-26T13:00:33;76236.50;;;-147.06;75.95